createdAt,value
2019-04-28T00:01:30.994Z,4.03
2019-04-28T00:03:57.948Z,3.40
2019-04-28T00:06:24.629Z,3.27
2019-04-28T00:08:51.794Z,3.50
2019-04-28T00:11:18.447Z,3.30
2019-04-28T00:13:45.307Z,3.80
2019-04-28T00:16:12.208Z,3.40
2019-04-28T00:18:39.001Z,4.30
2019-04-28T00:21:07.544Z,3.30
2019-04-28T00:23:52.764Z,3.70
2019-04-28T00:26:40.950Z,2.97
2019-04-28T00:29:07.857Z,3.70
2019-04-28T00:31:34.710Z,4.30
2019-04-28T00:34:01.503Z,3.50
2019-04-28T00:36:28.329Z,4.17
2019-04-28T00:38:54.948Z,2.83
2019-04-28T00:41:21.904Z,3.90
2019-04-28T00:43:48.558Z,3.70
2019-04-28T00:46:17.143Z,3.60
2019-04-28T00:48:43.763Z,3.53
2019-04-28T00:51:11.594Z,3.90
2019-04-28T00:53:38.468Z,3.30
2019-04-28T00:56:05.138Z,3.10
2019-04-28T00:58:31.966Z,4.17
2019-04-28T01:01:06.649Z,3.63
2019-04-28T01:03:33.293Z,3.40
2019-04-28T01:08:56.363Z,3.60
2019-04-28T01:11:23.336Z,3.10
2019-04-28T01:13:51.664Z,4.00
2019-04-28T01:16:30.190Z,3.80
2019-04-28T01:19:15.707Z,3.73
2019-04-28T01:22:00.933Z,3.97
2019-04-28T01:24:29.422Z,3.80
2019-04-28T01:26:56.236Z,3.20
2019-04-28T01:29:23.393Z,3.37
2019-04-28T01:31:51.953Z,3.47
2019-04-28T01:34:20.609Z,3.73
2019-04-28T01:36:47.447Z,4.00
2019-04-28T01:39:14.170Z,4.07
2019-04-28T01:41:40.832Z,4.13
2019-04-28T01:44:07.563Z,3.97
2019-04-28T01:46:34.219Z,4.10
2019-04-28T01:49:00.839Z,4.53
2019-04-28T01:51:27.640Z,3.70
2019-04-28T01:53:54.264Z,4.70
2019-04-28T01:56:21.032Z,4.20
2019-04-28T01:58:47.745Z,4.73
2019-04-28T02:01:14.396Z,4.23
2019-04-28T02:03:41.055Z,4.10
2019-04-28T02:06:07.704Z,4.27
2019-04-28T02:08:34.467Z,4.40
2019-04-28T02:11:01.267Z,4.33
2019-04-28T02:13:29.716Z,4.57
2019-04-28T02:15:56.331Z,4.50
2019-04-28T02:18:22.995Z,4.20
2019-04-28T02:20:51.513Z,4.80
2019-04-28T02:23:22.941Z,4.83
2019-04-28T02:25:49.803Z,5.13
2019-04-28T02:28:16.697Z,4.67
2019-04-28T02:30:49.380Z,5.10
2019-04-28T02:33:11.749Z,5.67
2019-04-28T02:35:41.465Z,5.17
2019-04-28T02:38:06.877Z,5.27
2019-04-28T02:40:33.606Z,5.77
2019-04-28T02:43:01.327Z,4.90
2019-04-28T02:45:31.402Z,5.10
2019-04-28T02:48:00.896Z,5.53
2019-04-28T02:50:30.456Z,5.23
2019-04-28T02:53:05.826Z,5.33
2019-04-28T02:55:32.550Z,5.40
2019-04-28T02:58:01.470Z,5.87
2019-04-28T03:00:28.055Z,5.50
2019-04-28T03:02:54.733Z,6.30
2019-04-28T03:05:21.881Z,5.27
2019-04-28T03:07:51.333Z,5.33
2019-04-28T03:10:17.296Z,5.83
2019-04-28T03:12:43.950Z,6.13
2019-04-28T03:15:13.624Z,5.60
2019-04-28T03:17:40.803Z,5.60
2019-04-28T03:20:10.797Z,5.77
2019-04-28T03:22:36.565Z,5.50
2019-04-28T03:25:07.125Z,5.97
2019-04-28T03:27:35.673Z,5.77
2019-04-28T03:30:23.217Z,6.17
2019-04-28T03:32:55.372Z,7.03
2019-04-28T03:35:22.870Z,6.30
2019-04-28T03:37:51.177Z,6.67
2019-04-28T03:40:17.188Z,5.93
2019-04-28T03:42:43.841Z,5.30
2019-04-28T03:45:12.369Z,5.60
2019-04-28T03:47:40.740Z,6.07
2019-04-28T03:50:10.207Z,5.13
2019-04-28T03:52:35.991Z,6.50
2019-04-28T03:55:03.745Z,5.37
2019-04-28T03:57:31.375Z,5.03
2019-04-28T04:00:00.921Z,5.40
2019-04-28T04:02:26.835Z,5.73
2019-04-28T04:04:53.458Z,4.80
2019-04-28T04:07:21.489Z,4.70
2019-04-28T04:09:51.536Z,5.33
2019-04-28T04:12:25.954Z,4.90
2019-04-28T04:15:06.571Z,4.80
2019-04-28T04:17:37.980Z,5.17
2019-04-28T04:20:05.894Z,4.70
2019-04-28T04:22:32.652Z,4.43
2019-04-28T04:25:01.233Z,4.40
2019-04-28T04:27:30.677Z,4.70
2019-04-28T04:29:56.316Z,5.50
2019-04-28T04:32:26.681Z,5.53
2019-04-28T04:34:51.510Z,5.70
2019-04-28T04:37:20.089Z,5.90
2019-04-28T04:39:46.608Z,4.83
2019-04-28T04:42:13.392Z,4.63
2019-04-28T04:44:41.562Z,5.20
2019-04-28T04:47:10.803Z,5.10
2019-04-28T04:49:37.119Z,5.43
2019-04-28T04:52:03.772Z,5.60
2019-04-28T04:54:32.755Z,5.07
2019-04-28T04:57:00.022Z,4.73
2019-04-28T04:59:30.162Z,4.40
2019-04-28T05:02:01.729Z,4.67
2019-04-28T05:04:31.978Z,4.90
2019-04-28T05:06:59.702Z,4.43
2019-04-28T05:09:26.580Z,4.40
2019-04-28T05:11:53.192Z,5.80
2019-04-28T05:14:20.061Z,4.30
2019-04-28T05:16:46.779Z,4.30
2019-04-28T05:19:13.556Z,5.03
2019-04-28T05:21:40.513Z,3.80
2019-04-28T05:24:17.755Z,4.20
2019-04-28T05:26:47.724Z,3.80
2019-04-28T05:29:14.653Z,4.27
2019-04-28T05:31:41.375Z,3.70
2019-04-28T05:34:09.187Z,4.50
2019-04-28T05:36:41.180Z,3.70
2019-04-28T05:39:05.892Z,3.80
2019-04-28T05:41:32.512Z,4.00
2019-04-28T05:43:59.644Z,4.10
2019-04-28T05:46:26.415Z,4.20
2019-04-28T05:49:10.327Z,2.90
2019-04-28T05:51:40.256Z,4.17
2019-04-28T05:54:09.847Z,4.43
2019-04-28T05:56:39.754Z,3.63
2019-04-28T05:59:10.015Z,3.57
2019-04-28T06:01:47.588Z,3.63
2019-04-28T06:04:14.558Z,3.77
2019-04-28T06:06:43.081Z,3.30
2019-04-28T06:09:11.664Z,3.57
2019-04-28T06:11:40.220Z,2.77
2019-04-28T06:14:06.845Z,3.87
2019-04-28T06:16:33.596Z,3.53
2019-04-28T06:19:00.269Z,3.40
2019-04-28T06:21:26.999Z,3.60
2019-04-28T06:23:58.817Z,3.23
2019-04-28T06:26:25.579Z,3.70
2019-04-28T06:28:52.216Z,3.43
2019-04-28T06:31:18.920Z,3.93
2019-04-28T06:33:45.608Z,3.73
2019-04-28T06:36:12.284Z,3.27
2019-04-28T06:38:38.920Z,3.40
2019-04-28T06:41:05.689Z,3.50
2019-04-28T06:43:32.345Z,4.07
2019-04-28T06:45:59.018Z,4.17
2019-04-28T06:48:25.670Z,3.40
2019-04-28T06:50:52.292Z,3.60
2019-04-28T06:53:18.964Z,3.20
2019-04-28T06:55:45.631Z,3.90
2019-04-28T06:58:12.268Z,3.47
2019-04-28T07:00:38.941Z,3.47
2019-04-28T07:03:09.245Z,4.43
2019-04-28T07:05:35.187Z,3.70
2019-04-28T07:08:01.803Z,3.80
2019-04-28T07:10:29.230Z,3.87
2019-04-28T07:12:56.311Z,3.67
2019-04-28T07:15:23.068Z,3.87
2019-04-28T07:17:49.736Z,3.60
2019-04-28T07:20:20.804Z,3.70
2019-04-28T07:22:47.527Z,4.03
2019-04-28T07:25:14.188Z,3.37
2019-04-28T07:27:40.870Z,3.13
2019-04-28T07:30:07.924Z,3.17
2019-04-28T07:32:34.701Z,3.50
2019-04-28T07:35:01.313Z,3.20
2019-04-28T07:37:27.932Z,4.13
2019-04-28T07:39:56.785Z,4.20
2019-04-28T07:42:23.035Z,4.20
2019-04-28T07:44:49.768Z,4.43
2019-04-28T07:47:16.388Z,3.57
2019-04-28T07:49:47.584Z,3.80
2019-04-28T07:52:16.076Z,3.30
2019-04-28T07:54:42.844Z,4.23
2019-04-28T07:57:09.497Z,3.77
2019-04-28T07:59:36.164Z,3.80
2019-04-28T08:02:03.011Z,4.07
2019-04-28T08:04:29.614Z,4.30
2019-04-28T08:06:56.264Z,4.37
2019-04-28T08:09:23.040Z,4.50
2019-04-28T08:11:49.732Z,3.50
2019-04-28T08:14:16.352Z,4.27
2019-04-28T08:16:43.012Z,3.80
2019-04-28T08:19:09.763Z,3.80
2019-04-28T08:21:36.879Z,3.93
2019-04-28T08:24:03.520Z,4.10
2019-04-28T08:26:31.921Z,4.40
2019-04-28T08:28:58.541Z,3.77
2019-04-28T08:31:27.105Z,4.10
2019-04-28T08:34:02.199Z,4.23
2019-04-28T08:36:24.091Z,5.23
2019-04-28T08:38:50.724Z,4.30
2019-04-28T08:41:17.373Z,4.13
2019-04-28T08:43:44.021Z,4.60
2019-04-28T08:46:30.625Z,5.70
2019-04-28T08:48:57.304Z,4.93
2019-04-28T08:51:23.968Z,4.37
2019-04-28T08:54:01.017Z,5.70
2019-04-28T08:56:24.340Z,5.33
2019-04-28T08:58:52.551Z,4.27
2019-04-28T09:01:19.349Z,5.10
2019-04-28T09:03:46.033Z,4.97
2019-04-28T09:06:13.123Z,5.57
2019-04-28T09:08:39.968Z,4.93
2019-04-28T09:11:06.816Z,5.50
2019-04-28T09:13:33.632Z,5.17
2019-04-28T09:16:00.350Z,5.00
2019-04-28T09:18:46.829Z,4.93
2019-04-28T09:21:13.501Z,5.40
2019-04-28T09:23:40.203Z,4.40
2019-04-28T09:26:06.892Z,5.03
2019-04-28T09:28:33.639Z,5.07
2019-04-28T09:31:00.423Z,4.70
2019-04-28T09:33:27.084Z,5.00
2019-04-28T09:35:54.162Z,5.30
2019-04-28T09:38:20.859Z,4.90
2019-04-28T09:40:47.564Z,5.63
2019-04-28T09:43:16.460Z,6.03
2019-04-28T09:45:50.987Z,5.27
2019-04-28T09:48:18.005Z,5.90
2019-04-28T09:50:44.829Z,5.60
2019-04-28T09:53:11.461Z,6.63
2019-04-28T09:55:38.132Z,5.37
2019-04-28T09:58:04.976Z,5.10
2019-04-28T10:00:31.839Z,5.20
2019-04-28T10:02:58.522Z,6.53
2019-04-28T10:05:25.196Z,5.63
2019-04-28T10:07:52.124Z,6.23
2019-04-28T10:10:18.880Z,5.57
2019-04-28T10:12:45.544Z,5.50
2019-04-28T10:15:12.956Z,6.23
2019-04-28T10:17:39.635Z,6.23
2019-04-28T10:20:06.584Z,5.70
2019-04-28T10:22:33.346Z,6.30
2019-04-28T10:24:59.968Z,5.40
2019-04-28T10:27:26.635Z,5.30
2019-04-28T10:29:53.265Z,4.67
2019-04-28T10:32:20.088Z,5.47
2019-04-28T10:34:54.657Z,4.73
2019-04-28T10:37:15.185Z,4.90
2019-04-28T10:39:46.533Z,4.90
2019-04-28T10:42:13.612Z,5.63
2019-04-28T10:44:42.155Z,5.10
2019-04-28T10:47:08.867Z,4.30
2019-04-28T10:49:35.693Z,4.90
2019-04-28T10:52:02.476Z,4.97
2019-04-28T10:54:29.139Z,4.77
2019-04-28T10:56:55.828Z,4.00
2019-04-28T10:59:22.641Z,4.27
2019-04-28T11:01:49.272Z,4.73
2019-04-28T11:04:34.579Z,4.20
2019-04-28T11:07:01.441Z,3.63
2019-04-28T11:09:32.552Z,4.00
2019-04-28T11:11:59.283Z,4.10
2019-04-28T11:14:25.972Z,3.70
2019-04-28T11:16:52.990Z,3.30
2019-04-28T11:19:20.056Z,3.13
2019-04-28T11:21:47.492Z,4.10
2019-04-28T11:24:14.204Z,4.20
2019-04-28T11:26:40.927Z,3.80
2019-04-28T11:29:07.995Z,3.83
2019-04-28T11:31:34.721Z,3.90
2019-04-28T11:34:12.605Z,2.63
2019-04-28T11:36:39.399Z,3.43
2019-04-28T11:39:08.193Z,2.90
2019-04-28T11:41:34.844Z,3.80
2019-04-28T11:44:01.656Z,3.10
2019-04-28T11:46:28.439Z,2.63
2019-04-28T11:48:55.052Z,2.60
2019-04-28T11:51:21.824Z,2.50
2019-04-28T11:53:48.471Z,3.00
2019-04-28T11:56:15.367Z,2.33
2019-04-28T11:58:42.096Z,2.33
2019-04-28T12:01:10.484Z,3.20
2019-04-28T12:03:37.212Z,2.67
2019-04-28T12:06:03.892Z,2.40
2019-04-28T12:08:30.511Z,3.00
2019-04-28T12:11:05.102Z,3.10
2019-04-28T12:13:33.652Z,2.53
2019-04-28T12:16:02.261Z,2.67
2019-04-28T12:18:42.957Z,3.50
2019-04-28T12:21:09.653Z,3.00
2019-04-28T12:23:36.574Z,3.07
2019-04-28T12:26:03.303Z,3.00
2019-04-28T12:28:29.956Z,2.80
2019-04-28T12:30:56.688Z,3.23
2019-04-28T12:33:23.603Z,2.40
2019-04-28T12:35:50.243Z,2.27
2019-04-28T12:38:16.895Z,2.63
2019-04-28T12:40:43.582Z,2.10
2019-04-28T12:43:10.424Z,2.60
2019-04-28T12:45:37.047Z,2.90
2019-04-28T12:48:03.867Z,2.50
2019-04-28T12:50:35.403Z,3.10
2019-04-28T12:53:02.000Z,2.73
2019-04-28T12:55:28.783Z,3.30
2019-04-28T12:57:55.407Z,3.40
2019-04-28T13:00:40.595Z,3.03
2019-04-28T13:03:18.113Z,2.97
2019-04-28T13:05:46.692Z,2.83
2019-04-28T13:08:13.332Z,3.30
2019-04-28T13:10:40.076Z,3.30
2019-04-28T13:13:06.774Z,4.07
2019-04-28T13:15:33.391Z,3.70
2019-04-28T13:18:00.088Z,3.53
2019-04-28T13:20:26.732Z,3.70
2019-04-28T13:22:53.468Z,3.30
2019-04-28T13:25:20.223Z,3.60
2019-04-28T13:27:46.988Z,3.20
2019-04-28T13:30:13.640Z,3.30
2019-04-28T13:32:40.332Z,3.47
2019-04-28T13:35:07.603Z,3.20
2019-04-28T13:37:34.269Z,3.63
2019-04-28T13:40:02.813Z,2.80
2019-04-28T13:42:29.512Z,2.90
2019-04-28T13:44:58.044Z,3.03
2019-04-28T13:47:24.843Z,3.10
2019-04-28T13:50:05.459Z,3.00
2019-04-28T13:52:33.382Z,2.57
2019-04-28T13:55:04.655Z,2.53
2019-04-28T13:57:31.772Z,2.90
2019-04-28T14:00:00.292Z,2.87
2019-04-28T14:02:31.872Z,3.23
2019-04-28T14:05:18.554Z,2.90
2019-04-28T14:07:45.339Z,2.77
2019-04-28T14:10:11.953Z,2.70
2019-04-28T14:12:38.609Z,2.87
2019-04-28T14:15:05.569Z,2.17
2019-04-28T14:17:32.942Z,2.20
2019-04-28T14:20:00.357Z,2.80
2019-04-28T14:22:27.047Z,2.67
2019-04-28T14:24:53.772Z,2.50
2019-04-28T14:27:20.487Z,2.30
2019-04-28T14:29:47.121Z,2.80
2019-04-28T14:32:13.905Z,2.50
2019-04-28T14:34:41.509Z,2.10
2019-04-28T14:37:08.107Z,2.30
2019-04-28T14:39:34.861Z,2.70
2019-04-28T14:42:01.433Z,1.80
2019-04-28T14:44:28.200Z,2.30
2019-04-28T14:46:54.894Z,1.90
2019-04-28T14:49:22.057Z,1.70
2019-04-28T14:51:48.705Z,2.20
2019-04-28T14:54:15.355Z,1.80
2019-04-28T14:56:42.103Z,1.80
2019-04-28T14:59:08.916Z,1.83
2019-04-28T15:01:43.401Z,1.77
2019-04-28T15:04:12.040Z,2.00
2019-04-28T15:06:40.632Z,1.00
2019-04-28T15:09:18.397Z,2.03
2019-04-28T15:11:46.916Z,1.43
2019-04-28T15:14:13.629Z,1.70
2019-04-28T15:16:40.340Z,1.73
2019-04-28T15:19:07.176Z,1.53
2019-04-28T15:21:33.908Z,1.63
2019-04-28T15:24:00.671Z,1.67
2019-04-28T15:26:27.376Z,1.63
2019-04-28T15:28:55.918Z,2.03
2019-04-28T15:31:22.709Z,1.73
2019-04-28T15:33:49.356Z,1.90
2019-04-28T15:36:16.013Z,2.23
2019-04-28T15:38:42.846Z,2.37
2019-04-28T15:41:20.935Z,2.10
2019-04-28T15:43:38.173Z,2.30
2019-04-28T15:46:04.972Z,2.87
2019-04-28T15:48:32.481Z,1.90
2019-04-28T15:50:59.124Z,2.20
2019-04-28T15:53:25.980Z,2.40
2019-04-28T15:56:04.123Z,2.20
2019-04-28T15:58:32.762Z,3.30
2019-04-28T16:00:59.990Z,3.50
2019-04-28T16:03:26.789Z,3.73
2019-04-28T16:05:53.412Z,2.73
2019-04-28T16:08:20.092Z,2.53
2019-04-28T16:10:46.770Z,2.50
2019-04-28T16:13:13.539Z,2.13
2019-04-28T16:15:40.184Z,2.50
2019-04-28T16:18:06.860Z,2.60
2019-04-28T16:20:33.531Z,2.50
2019-04-28T16:23:00.388Z,3.37
2019-04-28T16:25:27.154Z,2.53
2019-04-28T16:27:53.868Z,2.37
2019-04-28T16:30:20.545Z,2.80
2019-04-28T16:32:47.290Z,3.10
2019-04-28T16:35:13.937Z,2.40
2019-04-28T16:37:40.615Z,2.33
2019-04-28T16:40:09.557Z,2.10
2019-04-28T16:42:38.889Z,2.70
2019-04-28T16:45:05.755Z,2.57
2019-04-28T16:47:32.466Z,3.40
2019-04-28T16:49:59.129Z,2.67
2019-04-28T16:52:25.863Z,2.43
2019-04-28T16:54:54.448Z,3.13
2019-04-28T16:57:31.826Z,2.70
2019-04-28T17:00:01.662Z,3.30
2019-04-28T17:02:30.172Z,2.97
2019-04-28T17:04:56.848Z,2.43
2019-04-28T17:07:23.515Z,2.23
2019-04-28T17:09:52.105Z,2.43
2019-04-28T17:12:18.625Z,2.03
2019-04-28T17:14:45.397Z,2.60
2019-04-28T17:17:12.187Z,2.50
2019-04-28T17:19:38.884Z,2.30
2019-04-28T17:22:05.652Z,3.30
2019-04-28T17:24:32.366Z,4.60
2019-04-28T17:26:59.142Z,5.40
2019-04-28T17:29:26.003Z,4.53
2019-04-28T17:31:52.639Z,5.17
2019-04-28T17:34:21.280Z,4.73
2019-04-28T17:36:47.839Z,3.43
2019-04-28T17:39:16.008Z,3.30
2019-04-28T17:41:42.802Z,2.27
2019-04-28T17:44:09.524Z,1.93
2019-04-28T17:46:37.453Z,1.33
2019-04-28T17:49:04.296Z,2.00
2019-04-28T17:51:31.689Z,1.83
2019-04-28T17:53:58.473Z,2.20
2019-04-28T17:56:25.256Z,2.00
2019-04-28T17:58:51.952Z,2.20
2019-04-28T18:01:38.543Z,2.10
2019-04-28T18:04:07.463Z,3.20
2019-04-28T18:06:45.070Z,3.70
2019-04-28T18:09:13.008Z,2.80
2019-04-28T18:11:39.704Z,4.70
2019-04-28T18:14:06.730Z,12.70
2019-04-28T18:16:47.313Z,5.13
2019-04-28T18:19:24.628Z,6.63
2019-04-28T18:21:51.303Z,3.50
2019-04-28T18:24:18.156Z,3.83
2019-04-28T18:26:44.839Z,11.07
2019-04-28T18:29:11.495Z,3.90
2019-04-28T18:31:40.074Z,2.27
2019-04-28T18:34:26.477Z,2.10
2019-04-28T18:37:10.224Z,3.23
2019-04-28T18:39:54.517Z,3.93
2019-04-28T18:42:25.005Z,4.40
2019-04-28T18:44:51.745Z,5.03
2019-04-28T18:47:18.505Z,4.30
2019-04-28T18:49:45.197Z,3.67
2019-04-28T18:52:11.903Z,7.40
2019-04-28T18:54:38.605Z,5.33
2019-04-28T18:57:05.316Z,7.55
2019-04-28T18:59:31.991Z,4.23
2019-04-28T19:02:18.900Z,3.90
2019-04-28T19:04:45.624Z,3.73
2019-04-28T19:07:14.269Z,3.80
2019-04-28T19:09:45.623Z,3.40
2019-04-28T19:12:17.030Z,3.50
2019-04-28T19:14:48.478Z,4.07
2019-04-28T19:17:23.313Z,3.70
2019-04-28T19:19:50.107Z,3.60
2019-04-28T19:22:16.902Z,3.70
2019-04-28T19:24:43.696Z,5.10
2019-04-28T19:27:10.407Z,4.17
2019-04-28T19:29:37.075Z,3.37
2019-04-28T19:32:03.907Z,2.97
2019-04-28T19:34:30.918Z,3.20
2019-04-28T19:36:57.582Z,3.50
2019-04-28T19:39:24.367Z,4.03
2019-04-28T19:41:51.547Z,3.27
2019-04-28T19:44:18.491Z,3.00
2019-04-28T19:46:45.155Z,2.80
2019-04-28T19:49:11.899Z,2.60
2019-04-28T19:51:38.813Z,15.63
2019-04-28T19:54:05.844Z,13.17
2019-04-28T19:56:51.307Z,5.40
2019-04-28T19:59:22.644Z,5.00
2019-04-28T20:01:49.401Z,4.70
2019-04-28T20:04:16.188Z,4.57
2019-04-28T20:06:42.858Z,4.80
2019-04-28T20:09:09.553Z,4.57
2019-04-28T20:11:36.198Z,4.50
2019-04-28T20:14:02.854Z,4.80
2019-04-28T20:16:30.455Z,5.20
2019-04-28T20:18:57.085Z,5.50
2019-04-28T20:21:23.831Z,4.90
2019-04-28T20:23:50.652Z,4.70
2019-04-28T20:26:17.463Z,4.50
2019-04-28T20:28:44.691Z,5.07
2019-04-28T20:31:11.410Z,4.43
2019-04-28T20:33:38.165Z,4.47
2019-04-28T20:36:06.824Z,4.30
2019-04-28T20:38:33.788Z,3.90
2019-04-28T20:41:08.632Z,4.90
2019-04-28T20:43:35.684Z,4.23
2019-04-28T20:46:02.520Z,3.30
2019-04-28T20:48:29.301Z,3.73
2019-04-28T20:50:55.967Z,4.27
2019-04-28T20:53:22.740Z,4.43
2019-04-28T20:55:49.432Z,4.00
2019-04-28T20:58:16.116Z,4.10
2019-04-28T21:00:42.845Z,4.17
2019-04-28T21:03:09.608Z,4.03
2019-04-28T21:05:36.321Z,4.00
2019-04-28T21:08:02.940Z,4.30
2019-04-28T21:10:37.728Z,3.73
2019-04-28T21:12:58.211Z,4.20
2019-04-28T21:15:24.979Z,5.23
2019-04-28T21:17:51.698Z,4.57
2019-04-28T21:20:18.382Z,5.20
2019-04-28T21:22:45.053Z,4.10
2019-04-28T21:25:12.408Z,3.63
2019-04-28T21:27:39.276Z,3.77
2019-04-28T21:30:08.754Z,3.90
2019-04-28T21:32:35.337Z,3.10
2019-04-28T21:35:01.972Z,3.97
2019-04-28T21:37:28.631Z,3.70
2019-04-28T21:39:55.403Z,3.37
2019-04-28T21:42:23.955Z,3.30
2019-04-28T21:44:52.632Z,2.53
2019-04-28T21:47:24.899Z,3.10
2019-04-28T21:49:51.465Z,3.37
2019-04-28T21:52:18.127Z,3.80
2019-04-28T21:54:44.781Z,2.87
2019-04-28T21:57:11.752Z,3.60
2019-04-28T21:59:38.672Z,3.30
2019-04-28T22:02:05.452Z,3.90
2019-04-28T22:04:32.172Z,3.27
2019-04-28T22:06:58.916Z,3.27
2019-04-28T22:09:25.877Z,3.50
2019-04-28T22:11:52.648Z,3.90
2019-04-28T22:14:19.274Z,3.93
2019-04-28T22:16:46.047Z,4.40
2019-04-28T22:19:12.796Z,3.40
2019-04-28T22:21:39.470Z,3.43
2019-04-28T22:24:13.827Z,2.90
2019-04-28T22:26:48.064Z,3.40
2019-04-28T22:29:14.701Z,3.70
2019-04-28T22:31:43.028Z,5.30
2019-04-28T22:34:10.933Z,6.17
2019-04-28T22:36:37.552Z,4.30
2019-04-28T22:39:05.816Z,4.23
2019-04-28T22:41:32.452Z,4.20
2019-04-28T22:43:59.124Z,5.17
2019-04-28T22:46:25.764Z,5.27
2019-04-28T22:48:54.640Z,4.10
2019-04-28T22:51:21.405Z,3.87
2019-04-28T22:54:09.768Z,3.50
2019-04-28T22:56:39.681Z,2.83
2019-04-28T22:59:08.205Z,2.73
2019-04-28T23:01:49.074Z,2.77
2019-04-28T23:04:20.184Z,3.20
2019-04-28T23:06:46.953Z,3.43
2019-04-28T23:09:15.672Z,2.53
2019-04-28T23:11:42.809Z,3.30
2019-04-28T23:14:09.569Z,3.60
2019-04-28T23:16:36.419Z,5.00
2019-04-28T23:19:05.018Z,4.73
2019-04-28T23:21:36.452Z,5.13
2019-04-28T23:24:03.230Z,3.90
2019-04-28T23:26:29.900Z,4.43
2019-04-28T23:28:56.652Z,3.70
2019-04-28T23:31:23.384Z,4.40
2019-04-28T23:33:50.164Z,3.70
2019-04-28T23:36:16.913Z,3.97
2019-04-28T23:38:43.681Z,4.20
2019-04-28T23:41:15.022Z,4.70
2019-04-28T23:43:41.800Z,3.87
2019-04-28T23:46:08.564Z,3.73
2019-04-28T23:48:35.192Z,3.67
2019-04-28T23:51:15.412Z,3.30
2019-04-28T23:53:58.860Z,3.97
2019-04-28T23:56:25.525Z,3.23
2019-04-28T23:58:52.311Z,3.50
